sensor_id;sensor_type;location;lat;lon;timestamp;P1;durP1;ratioP1;P2;durP2;ratioP2
14316;SDS011;7242;50.858;6.586;2023-03-01T00:02:40;9.80;;;7.47;;
14316;SDS011;7242;50.858;6.586;2023-03-01T00:05:47;8.10;;;7.30;;
14316;SDS011;7242;50.858;6.586;2023-03-01T00:08:48;8.47;;;7.20;;
14316;SDS011;7242;50.858;6.586;2023-03-01T00:11:49;8.67;;;7.03;;
14316;SDS011;7242;50.858;6.586;2023-03-01T00:14:50;9.60;;;7.97;;
14316;SDS011;7242;50.858;6.586;2023-03-01T00:17:51;8.13;;;7.30;;
14316;SDS011;7242;50.858;6.586;2023-03-01T00:20:52;8.20;;;7.20;;
14316;SDS011;7242;50.858;6.586;2023-03-01T00:23:54;8.27;;;7.37;;
14316;SDS011;7242;50.858;6.586;2023-03-01T00:26:55;8.57;;;7.10;;
14316;SDS011;7242;50.858;6.586;2023-03-01T00:29:56;7.67;;;6.83;;
14316;SDS011;7242;50.858;6.586;2023-03-01T00:32:57;7.93;;;7.10;;
14316;SDS011;7242;50.858;6.586;2023-03-01T00:35:58;8.83;;;7.60;;
14316;SDS011;7242;50.858;6.586;2023-03-01T00:38:59;9.20;;;7.97;;
14316;SDS011;7242;50.858;6.586;2023-03-01T00:42:01;9.07;;;7.37;;
14316;SDS011;7242;50.858;6.586;2023-03-01T00:45:02;7.63;;;6.73;;
14316;SDS011;7242;50.858;6.586;2023-03-01T00:48:03;8.00;;;7.20;;
14316;SDS011;7242;50.858;6.586;2023-03-01T00:51:09;9.37;;;7.53;;
14316;SDS011;7242;50.858;6.586;2023-03-01T00:54:20;9.17;;;7.40;;
14316;SDS011;7242;50.858;6.586;2023-03-01T00:57:21;8.50;;;7.17;;
14316;SDS011;7242;50.858;6.586;2023-03-01T01:00:22;8.77;;;7.40;;
14316;SDS011;7242;50.858;6.586;2023-03-01T01:03:23;9.47;;;8.00;;
14316;SDS011;7242;50.858;6.586;2023-03-01T01:06:28;8.73;;;7.50;;
14316;SDS011;7242;50.858;6.586;2023-03-01T01:09:34;9.03;;;7.50;;
14316;SDS011;7242;50.858;6.586;2023-03-01T01:12:35;8.57;;;7.53;;
14316;SDS011;7242;50.858;6.586;2023-03-01T01:15:37;9.13;;;7.63;;
14316;SDS011;7242;50.858;6.586;2023-03-01T01:18:38;9.00;;;7.73;;
14316;SDS011;7242;50.858;6.586;2023-03-01T01:21:39;9.10;;;7.37;;
14316;SDS011;7242;50.858;6.586;2023-03-01T01:24:43;9.43;;;7.97;;
14316;SDS011;7242;50.858;6.586;2023-03-01T01:27:44;9.60;;;8.10;;
14316;SDS011;7242;50.858;6.586;2023-03-01T01:30:45;9.47;;;8.00;;
14316;SDS011;7242;50.858;6.586;2023-03-01T01:33:45;8.10;;;7.13;;
14316;SDS011;7242;50.858;6.586;2023-03-01T01:36:50;10.00;;;8.23;;
14316;SDS011;7242;50.858;6.586;2023-03-01T01:39:54;8.83;;;7.50;;
14316;SDS011;7242;50.858;6.586;2023-03-01T01:42:54;10.80;;;7.53;;
14316;SDS011;7242;50.858;6.586;2023-03-01T01:46:03;11.77;;;7.70;;
14316;SDS011;7242;50.858;6.586;2023-03-01T01:49:19;8.87;;;7.53;;
14316;SDS011;7242;50.858;6.586;2023-03-01T01:52:34;8.73;;;7.40;;
14316;SDS011;7242;50.858;6.586;2023-03-01T01:55:40;10.20;;;7.97;;
14316;SDS011;7242;50.858;6.586;2023-03-01T01:58:43;10.63;;;7.53;;
14316;SDS011;7242;50.858;6.586;2023-03-01T02:01:45;9.87;;;7.87;;
14316;SDS011;7242;50.858;6.586;2023-03-01T02:04:47;10.27;;;7.87;;
14316;SDS011;7242;50.858;6.586;2023-03-01T02:07:53;9.90;;;8.50;;
14316;SDS011;7242;50.858;6.586;2023-03-01T02:10:55;11.23;;;8.33;;
14316;SDS011;7242;50.858;6.586;2023-03-01T02:13:59;10.43;;;7.60;;
14316;SDS011;7242;50.858;6.586;2023-03-01T02:17:01;10.10;;;7.87;;
14316;SDS011;7242;50.858;6.586;2023-03-01T02:20:37;8.53;;;7.27;;
14316;SDS011;7242;50.858;6.586;2023-03-01T02:23:39;10.27;;;7.60;;
14316;SDS011;7242;50.858;6.586;2023-03-01T02:26:48;9.87;;;7.40;;
14316;SDS011;7242;50.858;6.586;2023-03-01T02:29:53;9.03;;;7.20;;
14316;SDS011;7242;50.858;6.586;2023-03-01T02:32:54;10.03;;;7.13;;
14316;SDS011;7242;50.858;6.586;2023-03-01T02:36:13;9.30;;;7.47;;
14316;SDS011;7242;50.858;6.586;2023-03-01T02:39:22;8.67;;;6.93;;
14316;SDS011;7242;50.858;6.586;2023-03-01T02:42:30;8.73;;;6.93;;
14316;SDS011;7242;50.858;6.586;2023-03-01T02:45:35;8.10;;;7.17;;
14316;SDS011;7242;50.858;6.586;2023-03-01T02:48:40;8.90;;;7.37;;
14316;SDS011;7242;50.858;6.586;2023-03-01T02:55:06;8.97;;;6.50;;
14316;SDS011;7242;50.858;6.586;2023-03-01T02:58:13;8.77;;;7.13;;
14316;SDS011;7242;50.858;6.586;2023-03-01T03:01:14;8.37;;;7.47;;
14316;SDS011;7242;50.858;6.586;2023-03-01T03:04:16;9.23;;;7.73;;
14316;SDS011;7242;50.858;6.586;2023-03-01T03:07:21;7.90;;;7.07;;
14316;SDS011;7242;50.858;6.586;2023-03-01T03:10:24;10.93;;;7.73;;
14316;SDS011;7242;50.858;6.586;2023-03-01T03:13:31;9.17;;;7.83;;
14316;SDS011;7242;50.858;6.586;2023-03-01T03:16:32;9.37;;;8.00;;
14316;SDS011;7242;50.858;6.586;2023-03-01T03:19:32;9.23;;;8.20;;
14316;SDS011;7242;50.858;6.586;2023-03-01T03:22:33;10.20;;;8.17;;
14316;SDS011;7242;50.858;6.586;2023-03-01T03:25:34;9.90;;;8.20;;
14316;SDS011;7242;50.858;6.586;2023-03-01T03:28:38;10.60;;;8.40;;
14316;SDS011;7242;50.858;6.586;2023-03-01T03:31:39;11.67;;;8.47;;
14316;SDS011;7242;50.858;6.586;2023-03-01T03:34:40;10.03;;;8.10;;
14316;SDS011;7242;50.858;6.586;2023-03-01T03:37:41;11.80;;;8.67;;
14316;SDS011;7242;50.858;6.586;2023-03-01T03:41:02;10.30;;;8.07;;
14316;SDS011;7242;50.858;6.586;2023-03-01T03:44:05;9.87;;;8.13;;
14316;SDS011;7242;50.858;6.586;2023-03-01T03:47:06;10.47;;;8.50;;
14316;SDS011;7242;50.858;6.586;2023-03-01T03:50:07;11.27;;;8.83;;
14316;SDS011;7242;50.858;6.586;2023-03-01T03:53:12;11.13;;;8.13;;
14316;SDS011;7242;50.858;6.586;2023-03-01T03:56:13;9.03;;;8.07;;
14316;SDS011;7242;50.858;6.586;2023-03-01T03:59:14;10.17;;;8.60;;
14316;SDS011;7242;50.858;6.586;2023-03-01T04:02:15;10.13;;;7.90;;
14316;SDS011;7242;50.858;6.586;2023-03-01T04:05:22;11.87;;;9.10;;
14316;SDS011;7242;50.858;6.586;2023-03-01T04:08:23;11.37;;;9.10;;
14316;SDS011;7242;50.858;6.586;2023-03-01T04:11:24;11.70;;;8.60;;
14316;SDS011;7242;50.858;6.586;2023-03-01T04:14:28;10.23;;;8.03;;
14316;SDS011;7242;50.858;6.586;2023-03-01T04:17:28;10.17;;;8.10;;
14316;SDS011;7242;50.858;6.586;2023-03-01T04:20:30;10.30;;;8.63;;
14316;SDS011;7242;50.858;6.586;2023-03-01T04:23:33;10.90;;;8.33;;
14316;SDS011;7242;50.858;6.586;2023-03-01T04:26:35;9.50;;;8.17;;
14316;SDS011;7242;50.858;6.586;2023-03-01T04:29:35;10.43;;;8.33;;
14316;SDS011;7242;50.858;6.586;2023-03-01T04:32:36;10.20;;;8.73;;
14316;SDS011;7242;50.858;6.586;2023-03-01T04:35:37;9.50;;;8.50;;
14316;SDS011;7242;50.858;6.586;2023-03-01T04:38:39;9.97;;;8.30;;
14316;SDS011;7242;50.858;6.586;2023-03-01T04:41:40;9.50;;;8.50;;
14316;SDS011;7242;50.858;6.586;2023-03-01T04:44:43;9.43;;;8.43;;
14316;SDS011;7242;50.858;6.586;2023-03-01T04:47:45;11.67;;;8.90;;
14316;SDS011;7242;50.858;6.586;2023-03-01T04:50:46;10.70;;;8.37;;
14316;SDS011;7242;50.858;6.586;2023-03-01T04:53:47;12.13;;;8.93;;
14316;SDS011;7242;50.858;6.586;2023-03-01T04:56:48;10.97;;;8.77;;
14316;SDS011;7242;50.858;6.586;2023-03-01T04:59:49;10.80;;;8.97;;
14316;SDS011;7242;50.858;6.586;2023-03-01T05:06:00;9.90;;;8.90;;
14316;SDS011;7242;50.858;6.586;2023-03-01T05:09:01;12.13;;;8.90;;
14316;SDS011;7242;50.858;6.586;2023-03-01T05:12:02;12.60;;;9.10;;
14316;SDS011;7242;50.858;6.586;2023-03-01T05:15:03;11.40;;;9.00;;
14316;SDS011;7242;50.858;6.586;2023-03-01T05:18:07;11.27;;;9.47;;
14316;SDS011;7242;50.858;6.586;2023-03-01T05:21:12;12.10;;;9.17;;
14316;SDS011;7242;50.858;6.586;2023-03-01T05:24:15;11.60;;;9.20;;
14316;SDS011;7242;50.858;6.586;2023-03-01T05:27:16;10.90;;;9.27;;
14316;SDS011;7242;50.858;6.586;2023-03-01T05:30:17;12.47;;;9.73;;
14316;SDS011;7242;50.858;6.586;2023-03-01T05:33:18;10.83;;;9.43;;
14316;SDS011;7242;50.858;6.586;2023-03-01T05:36:21;10.43;;;9.33;;
14316;SDS011;7242;50.858;6.586;2023-03-01T05:39:23;11.43;;;9.67;;
14316;SDS011;7242;50.858;6.586;2023-03-01T05:42:25;15.13;;;10.63;;
14316;SDS011;7242;50.858;6.586;2023-03-01T05:45:27;12.60;;;10.50;;
14316;SDS011;7242;50.858;6.586;2023-03-01T05:48:27;14.70;;;10.53;;
14316;SDS011;7242;50.858;6.586;2023-03-01T05:51:28;13.40;;;11.30;;
14316;SDS011;7242;50.858;6.586;2023-03-01T05:54:29;13.80;;;10.77;;
14316;SDS011;7242;50.858;6.586;2023-03-01T05:57:31;12.87;;;10.30;;
14316;SDS011;7242;50.858;6.586;2023-03-01T06:00:31;15.20;;;11.70;;
14316;SDS011;7242;50.858;6.586;2023-03-01T06:03:33;14.47;;;10.93;;
14316;SDS011;7242;50.858;6.586;2023-03-01T06:06:34;13.93;;;10.90;;
14316;SDS011;7242;50.858;6.586;2023-03-01T06:09:37;15.13;;;11.50;;
14316;SDS011;7242;50.858;6.586;2023-03-01T06:12:39;14.57;;;11.30;;
14316;SDS011;7242;50.858;6.586;2023-03-01T06:15:40;19.43;;;13.93;;
14316;SDS011;7242;50.858;6.586;2023-03-01T06:18:41;20.27;;;16.07;;
14316;SDS011;7242;50.858;6.586;2023-03-01T06:21:42;22.00;;;17.07;;
14316;SDS011;7242;50.858;6.586;2023-03-01T06:24:44;18.93;;;15.90;;
14316;SDS011;7242;50.858;6.586;2023-03-01T06:27:44;15.10;;;13.47;;
14316;SDS011;7242;50.858;6.586;2023-03-01T06:30:45;15.80;;;12.67;;
14316;SDS011;7242;50.858;6.586;2023-03-01T06:33:46;14.50;;;12.20;;
14316;SDS011;7242;50.858;6.586;2023-03-01T06:36:47;14.40;;;11.73;;
14316;SDS011;7242;50.858;6.586;2023-03-01T06:39:48;14.97;;;11.80;;
14316;SDS011;7242;50.858;6.586;2023-03-01T06:42:49;14.67;;;12.40;;
14316;SDS011;7242;50.858;6.586;2023-03-01T06:45:51;17.37;;;13.70;;
14316;SDS011;7242;50.858;6.586;2023-03-01T06:48:51;17.20;;;14.30;;
14316;SDS011;7242;50.858;6.586;2023-03-01T06:51:52;20.87;;;14.87;;
14316;SDS011;7242;50.858;6.586;2023-03-01T06:54:53;14.63;;;12.47;;
14316;SDS011;7242;50.858;6.586;2023-03-01T06:57:55;15.20;;;11.60;;
14316;SDS011;7242;50.858;6.586;2023-03-01T07:01:00;13.60;;;10.90;;
14316;SDS011;7242;50.858;6.586;2023-03-01T07:04:06;14.63;;;9.67;;
14316;SDS011;7242;50.858;6.586;2023-03-01T07:07:07;11.40;;;9.20;;
14316;SDS011;7242;50.858;6.586;2023-03-01T07:10:08;11.40;;;8.70;;
14316;SDS011;7242;50.858;6.586;2023-03-01T07:13:09;11.90;;;9.30;;
14316;SDS011;7242;50.858;6.586;2023-03-01T07:16:10;11.87;;;9.43;;
14316;SDS011;7242;50.858;6.586;2023-03-01T07:19:11;12.50;;;10.53;;
14316;SDS011;7242;50.858;6.586;2023-03-01T07:22:12;12.73;;;10.60;;
14316;SDS011;7242;50.858;6.586;2023-03-01T07:25:13;12.87;;;9.93;;
14316;SDS011;7242;50.858;6.586;2023-03-01T07:28:14;11.07;;;9.07;;
14316;SDS011;7242;50.858;6.586;2023-03-01T07:31:14;9.87;;;8.73;;
14316;SDS011;7242;50.858;6.586;2023-03-01T07:34:15;10.50;;;7.93;;
14316;SDS011;7242;50.858;6.586;2023-03-01T07:37:17;9.80;;;8.13;;
14316;SDS011;7242;50.858;6.586;2023-03-01T07:40:18;10.87;;;8.57;;
14316;SDS011;7242;50.858;6.586;2023-03-01T07:43:19;11.37;;;8.80;;
14316;SDS011;7242;50.858;6.586;2023-03-01T07:46:20;11.97;;;8.33;;
14316;SDS011;7242;50.858;6.586;2023-03-01T07:49:21;11.00;;;8.13;;
14316;SDS011;7242;50.858;6.586;2023-03-01T07:52:23;8.80;;;7.90;;
14316;SDS011;7242;50.858;6.586;2023-03-01T07:55:23;10.60;;;8.40;;
14316;SDS011;7242;50.858;6.586;2023-03-01T07:58:24;12.10;;;7.87;;
14316;SDS011;7242;50.858;6.586;2023-03-01T08:01:25;8.83;;;7.60;;
14316;SDS011;7242;50.858;6.586;2023-03-01T08:04:26;11.53;;;8.07;;
14316;SDS011;7242;50.858;6.586;2023-03-01T08:07:27;10.17;;;7.90;;
14316;SDS011;7242;50.858;6.586;2023-03-01T08:10:28;9.47;;;8.43;;
14316;SDS011;7242;50.858;6.586;2023-03-01T08:13:29;10.43;;;9.13;;
14316;SDS011;7242;50.858;6.586;2023-03-01T08:16:30;17.50;;;12.97;;
14316;SDS011;7242;50.858;6.586;2023-03-01T08:19:33;11.23;;;9.43;;
14316;SDS011;7242;50.858;6.586;2023-03-01T08:22:34;14.17;;;9.00;;
14316;SDS011;7242;50.858;6.586;2023-03-01T08:25:35;11.70;;;9.00;;
14316;SDS011;7242;50.858;6.586;2023-03-01T08:28:36;13.47;;;9.80;;
14316;SDS011;7242;50.858;6.586;2023-03-01T08:31:39;13.00;;;9.33;;
14316;SDS011;7242;50.858;6.586;2023-03-01T08:34:40;11.37;;;10.17;;
14316;SDS011;7242;50.858;6.586;2023-03-01T08:37:41;13.00;;;9.90;;
14316;SDS011;7242;50.858;6.586;2023-03-01T08:40:42;10.93;;;9.70;;
14316;SDS011;7242;50.858;6.586;2023-03-01T08:43:42;13.40;;;10.33;;
14316;SDS011;7242;50.858;6.586;2023-03-01T08:46:44;12.43;;;10.07;;
14316;SDS011;7242;50.858;6.586;2023-03-01T08:49:45;12.57;;;9.97;;
14316;SDS011;7242;50.858;6.586;2023-03-01T08:52:46;12.77;;;10.30;;
14316;SDS011;7242;50.858;6.586;2023-03-01T08:55:47;13.20;;;9.80;;
14316;SDS011;7242;50.858;6.586;2023-03-01T08:58:48;12.10;;;9.90;;
14316;SDS011;7242;50.858;6.586;2023-03-01T09:01:48;13.30;;;10.30;;
14316;SDS011;7242;50.858;6.586;2023-03-01T09:04:49;13.57;;;11.13;;
14316;SDS011;7242;50.858;6.586;2023-03-01T09:07:50;14.47;;;11.47;;
14316;SDS011;7242;50.858;6.586;2023-03-01T09:10:51;14.00;;;11.27;;
14316;SDS011;7242;50.858;6.586;2023-03-01T09:13:51;14.47;;;10.57;;
14316;SDS011;7242;50.858;6.586;2023-03-01T09:16:53;14.10;;;11.47;;
14316;SDS011;7242;50.858;6.586;2023-03-01T09:19:54;14.53;;;11.87;;
14316;SDS011;7242;50.858;6.586;2023-03-01T09:22:55;17.23;;;13.63;;
14316;SDS011;7242;50.858;6.586;2023-03-01T09:25:55;15.53;;;13.13;;
14316;SDS011;7242;50.858;6.586;2023-03-01T09:28:56;17.10;;;13.47;;
14316;SDS011;7242;50.858;6.586;2023-03-01T09:31:57;17.70;;;13.07;;
14316;SDS011;7242;50.858;6.586;2023-03-01T09:34:58;16.60;;;12.97;;
14316;SDS011;7242;50.858;6.586;2023-03-01T09:38:04;15.70;;;12.33;;
14316;SDS011;7242;50.858;6.586;2023-03-01T09:44:23;16.40;;;13.07;;
14316;SDS011;7242;50.858;6.586;2023-03-01T09:47:32;15.87;;;12.50;;
14316;SDS011;7242;50.858;6.586;2023-03-01T09:50:35;15.00;;;12.33;;
14316;SDS011;7242;50.858;6.586;2023-03-01T09:53:41;18.10;;;13.00;;
14316;SDS011;7242;50.858;6.586;2023-03-01T10:06:33;18.23;;;13.50;;
14316;SDS011;7242;50.858;6.586;2023-03-01T10:09:35;16.10;;;12.73;;
14316;SDS011;7242;50.858;6.586;2023-03-01T10:12:40;18.97;;;13.20;;
14316;SDS011;7242;50.858;6.586;2023-03-01T10:15:44;17.80;;;12.83;;
14316;SDS011;7242;50.858;6.586;2023-03-01T10:19:01;16.87;;;11.93;;
14316;SDS011;7242;50.858;6.586;2023-03-01T10:22:09;14.87;;;11.97;;
14316;SDS011;7242;50.858;6.586;2023-03-01T10:29:05;16.30;;;12.00;;
14316;SDS011;7242;50.858;6.586;2023-03-01T10:32:08;14.97;;;11.83;;
14316;SDS011;7242;50.858;6.586;2023-03-01T10:35:31;13.47;;;11.40;;
14316;SDS011;7242;50.858;6.586;2023-03-01T10:41:58;13.17;;;11.43;;
14316;SDS011;7242;50.858;6.586;2023-03-01T10:45:17;14.83;;;12.03;;
14316;SDS011;7242;50.858;6.586;2023-03-01T10:48:27;15.30;;;13.30;;
14316;SDS011;7242;50.858;6.586;2023-03-01T10:51:28;15.90;;;12.93;;
14316;SDS011;7242;50.858;6.586;2023-03-01T10:54:29;18.50;;;13.17;;
14316;SDS011;7242;50.858;6.586;2023-03-01T10:57:39;17.43;;;13.37;;
14316;SDS011;7242;50.858;6.586;2023-03-01T11:00:48;16.80;;;13.57;;
14316;SDS011;7242;50.858;6.586;2023-03-01T11:07:06;14.70;;;11.90;;
14316;SDS011;7242;50.858;6.586;2023-03-01T11:10:11;18.40;;;12.77;;
14316;SDS011;7242;50.858;6.586;2023-03-01T11:13:18;15.97;;;13.27;;
14316;SDS011;7242;50.858;6.586;2023-03-01T11:16:27;15.17;;;11.87;;
14316;SDS011;7242;50.858;6.586;2023-03-01T11:19:39;15.67;;;12.43;;
14316;SDS011;7242;50.858;6.586;2023-03-01T11:22:45;15.77;;;12.57;;
14316;SDS011;7242;50.858;6.586;2023-03-01T11:26:13;14.67;;;12.03;;
14316;SDS011;7242;50.858;6.586;2023-03-01T11:32:36;14.57;;;11.17;;
14316;SDS011;7242;50.858;6.586;2023-03-01T11:35:49;16.30;;;12.13;;
14316;SDS011;7242;50.858;6.586;2023-03-01T11:39:01;15.63;;;12.13;;
14316;SDS011;7242;50.858;6.586;2023-03-01T11:42:20;13.30;;;11.63;;
14316;SDS011;7242;50.858;6.586;2023-03-01T11:59:01;15.30;;;12.40;;
14316;SDS011;7242;50.858;6.586;2023-03-01T12:12:32;13.23;;;11.10;;
14316;SDS011;7242;50.858;6.586;2023-03-01T12:15:40;11.80;;;10.20;;
14316;SDS011;7242;50.858;6.586;2023-03-01T12:18:57;11.10;;;9.73;;
14316;SDS011;7242;50.858;6.586;2023-03-01T12:25:41;13.70;;;9.80;;
14316;SDS011;7242;50.858;6.586;2023-03-01T12:28:54;13.83;;;10.10;;
14316;SDS011;7242;50.858;6.586;2023-03-01T12:35:58;12.77;;;9.00;;
14316;SDS011;7242;50.858;6.586;2023-03-01T12:50:26;12.10;;;9.83;;
14316;SDS011;7242;50.858;6.586;2023-03-01T12:53:29;14.07;;;9.13;;
14316;SDS011;7242;50.858;6.586;2023-03-01T12:56:35;12.77;;;9.87;;
14316;SDS011;7242;50.858;6.586;2023-03-01T12:59:39;11.27;;;8.80;;
14316;SDS011;7242;50.858;6.586;2023-03-01T13:03:06;10.57;;;8.10;;
14316;SDS011;7242;50.858;6.586;2023-03-01T13:06:35;10.53;;;8.50;;
14316;SDS011;7242;50.858;6.586;2023-03-01T13:13:27;11.03;;;7.90;;
14316;SDS011;7242;50.858;6.586;2023-03-01T13:19:29;10.53;;;7.87;;
14316;SDS011;7242;50.858;6.586;2023-03-01T13:22:32;11.57;;;8.10;;
14316;SDS011;7242;50.858;6.586;2023-03-01T13:25:33;9.93;;;8.03;;
14316;SDS011;7242;50.858;6.586;2023-03-01T13:28:39;10.37;;;7.60;;
14316;SDS011;7242;50.858;6.586;2023-03-01T13:34:55;9.33;;;7.80;;
14316;SDS011;7242;50.858;6.586;2023-03-01T13:44:39;11.23;;;8.10;;
14316;SDS011;7242;50.858;6.586;2023-03-01T13:47:43;11.70;;;8.43;;
14316;SDS011;7242;50.858;6.586;2023-03-01T13:50:48;10.43;;;8.60;;
14316;SDS011;7242;50.858;6.586;2023-03-01T13:53:53;10.57;;;8.80;;
14316;SDS011;7242;50.858;6.586;2023-03-01T13:56:57;9.90;;;8.50;;
14316;SDS011;7242;50.858;6.586;2023-03-01T14:00:00;11.33;;;8.83;;
14316;SDS011;7242;50.858;6.586;2023-03-01T14:03:06;11.73;;;8.50;;
14316;SDS011;7242;50.858;6.586;2023-03-01T14:06:20;11.50;;;8.60;;
14316;SDS011;7242;50.858;6.586;2023-03-01T14:09:24;12.40;;;8.90;;
14316;SDS011;7242;50.858;6.586;2023-03-01T14:15:47;12.87;;;8.40;;
14316;SDS011;7242;50.858;6.586;2023-03-01T14:22:29;11.20;;;8.77;;
14316;SDS011;7242;50.858;6.586;2023-03-01T14:25:34;13.80;;;9.30;;
14316;SDS011;7242;50.858;6.586;2023-03-01T14:28:36;12.57;;;9.50;;
14316;SDS011;7242;50.858;6.586;2023-03-01T14:31:39;13.17;;;9.47;;
14316;SDS011;7242;50.858;6.586;2023-03-01T14:34:44;10.70;;;8.80;;
14316;SDS011;7242;50.858;6.586;2023-03-01T14:37:46;11.70;;;9.20;;
14316;SDS011;7242;50.858;6.586;2023-03-01T14:40:51;12.63;;;9.43;;
14316;SDS011;7242;50.858;6.586;2023-03-01T14:44:06;11.80;;;8.93;;
14316;SDS011;7242;50.858;6.586;2023-03-01T14:47:13;12.43;;;8.83;;
14316;SDS011;7242;50.858;6.586;2023-03-01T14:50:27;12.13;;;8.70;;
14316;SDS011;7242;50.858;6.586;2023-03-01T14:53:30;11.53;;;8.80;;
14316;SDS011;7242;50.858;6.586;2023-03-01T14:56:42;11.07;;;8.00;;
14316;SDS011;7242;50.858;6.586;2023-03-01T14:59:44;11.70;;;7.90;;
14316;SDS011;7242;50.858;6.586;2023-03-01T15:02:48;10.10;;;7.63;;
14316;SDS011;7242;50.858;6.586;2023-03-01T15:05:51;10.37;;;7.60;;
14316;SDS011;7242;50.858;6.586;2023-03-01T15:08:53;9.40;;;7.57;;
14316;SDS011;7242;50.858;6.586;2023-03-01T15:11:56;8.50;;;7.00;;
14316;SDS011;7242;50.858;6.586;2023-03-01T15:14:57;10.40;;;7.80;;
14316;SDS011;7242;50.858;6.586;2023-03-01T15:17:59;10.47;;;7.50;;
14316;SDS011;7242;50.858;6.586;2023-03-01T15:21:06;10.93;;;7.40;;
14316;SDS011;7242;50.858;6.586;2023-03-01T15:24:25;8.63;;;7.50;;
14316;SDS011;7242;50.858;6.586;2023-03-01T15:27:27;10.43;;;7.77;;
14316;SDS011;7242;50.858;6.586;2023-03-01T15:30:30;12.07;;;7.43;;
14316;SDS011;7242;50.858;6.586;2023-03-01T15:33:37;9.37;;;7.97;;
14316;SDS011;7242;50.858;6.586;2023-03-01T15:36:41;9.77;;;7.23;;
14316;SDS011;7242;50.858;6.586;2023-03-01T15:39:53;9.70;;;7.70;;
14316;SDS011;7242;50.858;6.586;2023-03-01T15:42:55;12.97;;;8.27;;
14316;SDS011;7242;50.858;6.586;2023-03-01T15:45:56;12.70;;;7.90;;
14316;SDS011;7242;50.858;6.586;2023-03-01T15:48:59;8.57;;;7.40;;
14316;SDS011;7242;50.858;6.586;2023-03-01T15:52:02;9.77;;;7.23;;
14316;SDS011;7242;50.858;6.586;2023-03-01T15:55:04;9.10;;;6.80;;
14316;SDS011;7242;50.858;6.586;2023-03-01T15:58:12;8.60;;;7.07;;
14316;SDS011;7242;50.858;6.586;2023-03-01T16:01:16;13.13;;;6.87;;
14316;SDS011;7242;50.858;6.586;2023-03-01T16:04:18;10.37;;;7.40;;
14316;SDS011;7242;50.858;6.586;2023-03-01T16:07:22;10.17;;;7.50;;
14316;SDS011;7242;50.858;6.586;2023-03-01T16:10:24;9.87;;;7.50;;
14316;SDS011;7242;50.858;6.586;2023-03-01T16:13:24;11.10;;;7.23;;
14316;SDS011;7242;50.858;6.586;2023-03-01T16:16:26;9.33;;;7.07;;
14316;SDS011;7242;50.858;6.586;2023-03-01T16:19:26;11.60;;;7.17;;
14316;SDS011;7242;50.858;6.586;2023-03-01T16:22:27;8.10;;;6.77;;
14316;SDS011;7242;50.858;6.586;2023-03-01T16:25:28;12.00;;;7.30;;
14316;SDS011;7242;50.858;6.586;2023-03-01T16:28:29;10.73;;;7.10;;
14316;SDS011;7242;50.858;6.586;2023-03-01T16:31:30;9.27;;;6.60;;
14316;SDS011;7242;50.858;6.586;2023-03-01T16:34:31;8.70;;;6.30;;
14316;SDS011;7242;50.858;6.586;2023-03-01T16:37:32;9.57;;;7.40;;
14316;SDS011;7242;50.858;6.586;2023-03-01T16:40:33;9.00;;;6.60;;
14316;SDS011;7242;50.858;6.586;2023-03-01T16:43:34;9.03;;;6.73;;
14316;SDS011;7242;50.858;6.586;2023-03-01T16:46:35;9.03;;;6.57;;
14316;SDS011;7242;50.858;6.586;2023-03-01T16:49:36;9.53;;;7.00;;
14316;SDS011;7242;50.858;6.586;2023-03-01T16:52:37;9.20;;;7.37;;
14316;SDS011;7242;50.858;6.586;2023-03-01T16:55:38;9.93;;;6.50;;
14316;SDS011;7242;50.858;6.586;2023-03-01T16:58:45;9.70;;;6.70;;
14316;SDS011;7242;50.858;6.586;2023-03-01T17:01:46;9.03;;;6.67;;
14316;SDS011;7242;50.858;6.586;2023-03-01T17:04:54;9.83;;;7.20;;
14316;SDS011;7242;50.858;6.586;2023-03-01T17:07:55;8.83;;;6.40;;
14316;SDS011;7242;50.858;6.586;2023-03-01T17:11:04;8.40;;;6.30;;
14316;SDS011;7242;50.858;6.586;2023-03-01T17:14:09;8.53;;;6.83;;
14316;SDS011;7242;50.858;6.586;2023-03-01T17:17:10;9.73;;;6.53;;
14316;SDS011;7242;50.858;6.586;2023-03-01T17:20:11;10.13;;;6.57;;
14316;SDS011;7242;50.858;6.586;2023-03-01T17:23:12;9.63;;;7.37;;
14316;SDS011;7242;50.858;6.586;2023-03-01T17:26:13;16.07;;;9.13;;
14316;SDS011;7242;50.858;6.586;2023-03-01T17:29:14;17.10;;;11.33;;
14316;SDS011;7242;50.858;6.586;2023-03-01T17:32:17;11.00;;;8.07;;
14316;SDS011;7242;50.858;6.586;2023-03-01T17:35:18;9.37;;;6.73;;
14316;SDS011;7242;50.858;6.586;2023-03-01T17:38:19;8.57;;;6.27;;
14316;SDS011;7242;50.858;6.586;2023-03-01T17:41:20;10.50;;;6.67;;
14316;SDS011;7242;50.858;6.586;2023-03-01T17:44:24;8.30;;;6.33;;
14316;SDS011;7242;50.858;6.586;2023-03-01T17:47:25;9.00;;;6.30;;
14316;SDS011;7242;50.858;6.586;2023-03-01T17:50:25;9.13;;;6.53;;
14316;SDS011;7242;50.858;6.586;2023-03-01T17:53:27;13.37;;;8.43;;
14316;SDS011;7242;50.858;6.586;2023-03-01T17:56:29;10.47;;;7.50;;
14316;SDS011;7242;50.858;6.586;2023-03-01T17:59:31;10.47;;;7.13;;
14316;SDS011;7242;50.858;6.586;2023-03-01T18:02:33;10.17;;;7.47;;
14316;SDS011;7242;50.858;6.586;2023-03-01T18:05:34;8.63;;;6.93;;
14316;SDS011;7242;50.858;6.586;2023-03-01T18:08:36;8.37;;;6.60;;
14316;SDS011;7242;50.858;6.586;2023-03-01T18:11:38;11.60;;;7.27;;
14316;SDS011;7242;50.858;6.586;2023-03-01T18:14:41;8.93;;;7.20;;
14316;SDS011;7242;50.858;6.586;2023-03-01T18:17:42;9.87;;;7.20;;
14316;SDS011;7242;50.858;6.586;2023-03-01T18:20:42;11.30;;;7.40;;
14316;SDS011;7242;50.858;6.586;2023-03-01T18:23:43;10.13;;;8.20;;
14316;SDS011;7242;50.858;6.586;2023-03-01T18:26:44;9.93;;;7.23;;
14316;SDS011;7242;50.858;6.586;2023-03-01T18:29:45;10.47;;;7.10;;
14316;SDS011;7242;50.858;6.586;2023-03-01T18:32:45;10.60;;;6.97;;
14316;SDS011;7242;50.858;6.586;2023-03-01T18:35:46;10.20;;;6.87;;
14316;SDS011;7242;50.858;6.586;2023-03-01T18:38:49;9.03;;;7.00;;
14316;SDS011;7242;50.858;6.586;2023-03-01T18:41:52;8.97;;;7.17;;
14316;SDS011;7242;50.858;6.586;2023-03-01T18:44:52;10.03;;;7.20;;
14316;SDS011;7242;50.858;6.586;2023-03-01T18:47:53;9.37;;;7.23;;
14316;SDS011;7242;50.858;6.586;2023-03-01T18:50:54;10.97;;;7.73;;
14316;SDS011;7242;50.858;6.586;2023-03-01T18:53:56;11.20;;;8.30;;
14316;SDS011;7242;50.858;6.586;2023-03-01T18:57:00;8.30;;;6.67;;
14316;SDS011;7242;50.858;6.586;2023-03-01T19:00:01;8.97;;;7.37;;
14316;SDS011;7242;50.858;6.586;2023-03-01T19:03:03;10.03;;;7.33;;
14316;SDS011;7242;50.858;6.586;2023-03-01T19:06:04;9.30;;;6.70;;
14316;SDS011;7242;50.858;6.586;2023-03-01T19:09:06;8.97;;;6.97;;
14316;SDS011;7242;50.858;6.586;2023-03-01T19:12:07;7.80;;;6.30;;
14316;SDS011;7242;50.858;6.586;2023-03-01T19:15:08;8.93;;;6.70;;
14316;SDS011;7242;50.858;6.586;2023-03-01T19:18:09;9.50;;;7.33;;
14316;SDS011;7242;50.858;6.586;2023-03-01T19:21:10;9.30;;;7.23;;
14316;SDS011;7242;50.858;6.586;2023-03-01T19:24:11;9.13;;;7.80;;
14316;SDS011;7242;50.858;6.586;2023-03-01T19:27:12;9.73;;;7.30;;
14316;SDS011;7242;50.858;6.586;2023-03-01T19:30:12;8.23;;;7.00;;
14316;SDS011;7242;50.858;6.586;2023-03-01T19:33:14;10.17;;;7.33;;
14316;SDS011;7242;50.858;6.586;2023-03-01T19:36:14;8.93;;;7.20;;
14316;SDS011;7242;50.858;6.586;2023-03-01T19:39:15;11.23;;;7.60;;
14316;SDS011;7242;50.858;6.586;2023-03-01T19:42:16;9.37;;;7.07;;
14316;SDS011;7242;50.858;6.586;2023-03-01T19:45:17;9.93;;;7.30;;
14316;SDS011;7242;50.858;6.586;2023-03-01T19:48:18;9.93;;;6.90;;
14316;SDS011;7242;50.858;6.586;2023-03-01T19:51:19;9.03;;;7.13;;
14316;SDS011;7242;50.858;6.586;2023-03-01T19:54:21;8.63;;;7.57;;
14316;SDS011;7242;50.858;6.586;2023-03-01T19:57:22;9.67;;;7.67;;
14316;SDS011;7242;50.858;6.586;2023-03-01T20:00:23;10.00;;;7.37;;
14316;SDS011;7242;50.858;6.586;2023-03-01T20:03:25;9.20;;;7.37;;
14316;SDS011;7242;50.858;6.586;2023-03-01T20:06:30;7.77;;;6.77;;
14316;SDS011;7242;50.858;6.586;2023-03-01T20:09:31;10.43;;;6.97;;